Time;durP1;ratioP1;P1;durP2;ratioP2;P2;SDS_P1;SDS_P2;PMS_P1;PMS_P2;Temp;Humidity;BMP_temperature;BMP_pressure;BME280_temperature;BME280_humidity;BME280_pressure;Samples;Min_cycle;Max_cycle;Signal;HPM_P1;HPM_P2
2022/09/29 00:00:31;;;;;;;9.93;3.85;;;;;;;16.60;71.87;99121.31;5088035;28;20032;-32
2022/09/29 00:02:56;;;;;;;8.05;3.83;;;;;;;16.27;73.39;99097.59;5087678;28;20032;-30
2022/09/29 00:05:22;;;;;;;9.55;4.00;;;;;;;16.57;72.07;99127.22;5069444;28;20070;-30
2022/09/29 00:07:47;;;;;;;7.45;3.50;;;;;;;15.97;73.68;99087.84;5087779;28;20043;-30
2022/09/29 00:10:13;;;;;;;5.88;3.78;;;;;;;15.97;74.31;99114.72;5069596;28;20578;-28
2022/09/29 00:12:39;;;;;;;10.23;5.90;;;;;;;15.83;74.89;99109.16;5087792;28;20024;-30
2022/09/29 00:15:05;;;;;;;13.57;6.72;;;;;;;15.83;75.04;99113.72;5069241;28;20488;-29
2022/09/29 00:17:30;;;;;;;8.43;5.22;;;;;;;15.94;74.59;99115.28;5087470;28;20077;-29
2022/09/29 00:19:56;;;;;;;8.77;4.45;;;;;;;16.22;73.41;99121.03;5087497;28;20028;-29
2022/09/29 00:22:21;;;;;;;7.85;4.43;;;;;;;16.51;72.13;99129.19;5087619;28;20035;-30
2022/09/29 00:24:47;;;;;;;7.35;4.22;;;;;;;16.21;72.65;99114.06;5087522;28;20071;-29
2022/09/29 00:27:16;;;;;;;7.43;4.13;;;;;;;16.16;72.21;99119.44;5087296;28;20020;-28
2022/09/29 00:29:42;;;;;;;6.38;3.92;;;;;;;15.84;73.61;99099.22;5087378;28;20068;-30
2022/09/29 00:32:08;;;;;;;8.23;4.78;;;;;;;15.91;74.10;99120.41;5086932;28;20050;-29
2022/09/29 00:34:33;;;;;;;7.30;4.15;;;;;;;15.86;74.12;99105.91;5087602;28;20036;-29
2022/09/29 00:36:59;;;;;;;10.85;5.22;;;;;;;16.04;73.17;99095.59;5087211;28;20032;-30
2022/09/29 00:39:24;;;;;;;14.93;5.15;;;;;;;15.77;73.34;99064.56;5087271;28;20020;-30
2022/09/29 00:41:50;;;;;;;13.07;4.72;;;;;;;15.83;73.95;99092.22;5086926;28;20070;-32
2022/09/29 00:44:18;;;;;;;8.05;3.80;;;;;;;16.09;72.64;99087.50;5087196;28;20835;-31
2022/09/29 00:46:46;;;;;;;9.63;3.55;;;;;;;16.07;72.64;99070.84;5087208;28;20028;-31
2022/09/29 00:49:18;;;;;;;9.68;3.97;;;;;;;16.12;72.94;99088.81;5087170;28;20468;-29
2022/09/29 00:51:54;;;;;;;7.50;3.65;;;;;;;16.19;72.54;99094.69;5087005;28;20036;-30
2022/09/29 00:54:20;;;;;;;7.75;3.60;;;;;;;15.97;73.33;99087.84;5087036;28;20096;-30
2022/09/29 00:56:49;;;;;;;8.80;3.85;;;;;;;15.62;74.28;99075.38;5087235;28;20549;-29
2022/09/29 00:59:22;;;;;;;7.55;3.58;;;;;;;15.97;72.60;99060.94;5086899;28;20140;-30
2022/09/29 01:01:48;;;;;;;8.40;3.85;;;;;;;15.51;74.26;99069.25;5087069;28;20020;-28
2022/09/29 01:04:17;;;;;;;8.77;4.45;;;;;;;15.71;73.43;99070.22;5087252;28;20043;-29
2022/09/29 01:06:49;;;;;;;9.48;4.10;;;;;;;15.61;74.01;99096.06;5090346;28;20060;-29
2022/09/29 01:09:18;;;;;;;9.10;3.95;;;;;;;15.40;74.74;99091.84;5072874;28;20039;-29
2022/09/29 01:11:44;;;;;;;8.32;4.28;;;;;;;15.66;73.24;99074.53;5091022;28;20453;-29
2022/09/29 01:14:10;;;;;;;11.68;4.15;;;;;;;15.91;72.96;99080.88;5090964;28;20031;-30
2022/09/29 01:16:40;;;;;;;9.48;4.68;;;;;;;15.60;73.33;99072.16;5091360;28;20028;-28
2022/09/29 01:19:24;;;;;;;8.30;4.13;;;;;;;15.76;72.50;99080.97;5091101;28;20026;-29
2022/09/29 01:22:42;;;;;;;7.25;3.95;;;;;;;15.95;71.34;99071.16;5091094;28;20043;-33
2022/09/29 01:25:13;;;;;;;7.78;3.85;;;;;;;15.49;73.99;99082.16;5019040;28;20065;-28
2022/09/29 01:27:47;;;;;;;8.10;4.30;;;;;;;15.37;74.46;99076.28;5090877;28;20110;-29
2022/09/29 01:30:21;;;;;;;9.10;4.15;;;;;;;15.27;74.70;99077.91;5072649;28;20028;-32
2022/09/29 01:33:05;;;;;;;7.85;4.50;;;;;;;14.79;76.96;99074.81;5091056;28;20715;-29
2022/09/29 01:35:41;;;;;;;8.30;3.95;;;;;;;15.16;75.59;99076.34;5090831;28;20028;-29
2022/09/29 01:38:13;;;;;;;11.18;4.45;;;;;;;15.41;75.23;99080.03;5090690;28;20123;-30
2022/09/29 01:40:56;;;;;;;9.40;4.05;;;;;;;15.35;75.14;99071.19;5090818;28;20555;-33
2022/09/29 01:43:27;;;;;;;6.03;3.70;;;;;;;15.31;74.17;99069.31;5090934;28;20054;-29
2022/09/29 01:46:01;;;;;;;7.95;4.63;;;;;;;15.17;74.40;99059.16;5072171;28;20031;-29
2022/09/29 01:48:33;;;;;;;7.47;4.03;;;;;;;15.27;74.49;99085.19;5072372;28;20040;-31
2022/09/29 01:51:05;;;;;;;8.15;4.25;;;;;;;14.94;76.01;99065.94;5090504;28;20032;-33
2022/09/29 01:53:39;;;;;;;9.65;4.32;;;;;;;15.12;75.53;99082.53;5090274;28;20085;-28
2022/09/29 01:56:14;;;;;;;12.48;5.18;;;;;;;15.09;74.73;99067.78;5072027;28;20101;-28
2022/09/29 01:58:45;;;;;;;9.95;5.20;;;;;;;15.26;74.81;99089.75;5090588;28;20035;-28
2022/09/29 02:01:13;;;;;;;14.50;6.82;;;;;;;15.24;74.93;99078.47;5090054;28;20024;-29
2022/09/29 02:03:52;;;;;;;14.05;7.57;;;;;;;15.27;74.66;99085.97;5071784;28;20032;-31
2022/09/29 02:06:27;;;;;;;12.23;6.20;;;;;;;14.71;78.14;99088.78;5090027;28;20048;-28
2022/09/29 02:08:55;;;;;;;9.55;4.05;;;;;;;14.73;77.14;99078.59;5090135;28;20031;-30
2022/09/29 02:11:21;;;;;;;8.98;4.88;;;;;;;15.04;76.72;99102.72;5089912;28;20031;-29
2022/09/29 02:13:59;;;;;;;7.90;4.32;;;;;;;15.17;75.96;99090.59;5089833;28;20495;-29
2022/09/29 02:16:39;;;;;;;7.95;4.05;;;;;;;15.06;75.71;99106.72;5089824;28;20032;-30
2022/09/29 02:19:12;;;;;;;6.70;3.40;;;;;;;14.62;78.79;99120.72;5089832;28;20047;-29
2022/09/29 02:21:38;;;;;;;7.28;3.67;;;;;;;14.54;79.77;99120.41;5089997;28;20032;-29
2022/09/29 02:24:03;;;;;;;6.65;3.53;;;;;;;14.79;78.48;99100.84;5089719;28;20032;-32
2022/09/29 02:26:33;;;;;;;8.35;4.13;;;;;;;15.04;76.97;99097.34;5089788;28;20031;-28
2022/09/29 02:29:00;;;;;;;6.18;3.38;;;;;;;15.20;76.60;99127.63;5089662;28;20035;-30
2022/09/29 02:31:26;;;;;;;6.30;2.92;;;;;;;15.12;77.77;99131.69;5071540;28;20423;-30
2022/09/29 02:33:51;;;;;;;7.50;3.55;;;;;;;14.89;78.74;99124.19;5089492;28;20024;-29
2022/09/29 02:36:54;;;;;;;5.40;3.40;;;;;;;14.85;79.24;99127.44;5089738;28;20031;-28
2022/09/29 02:39:29;;;;;;;6.53;3.63;;;;;;;15.01;78.59;99133.56;5089485;28;20092;-29
2022/09/29 02:42:32;;;;;;;6.85;3.40;;;;;;;15.08;78.42;99122.56;5071109;28;20464;-28
2022/09/29 02:45:29;;;;;;;8.52;3.65;;;;;;;15.14;77.98;99142.97;5089943;28;20038;-29
2022/09/29 02:48:22;;;;;;;5.80;3.33;;;;;;;15.12;78.17;99147.81;5089706;28;20039;-28
2022/09/29 02:50:48;;;;;;;7.45;4.10;;;;;;;15.25;77.40;99146.44;5090123;28;20028;-29
2022/09/29 02:53:36;;;;;;;7.78;3.72;;;;;;;15.47;76.50;99138.84;5089490;28;20036;-31
2022/09/29 02:56:37;;;;;;;7.05;3.75;;;;;;;15.56;76.39;99139.06;5089887;28;20103;-30
2022/09/29 02:59:13;;;;;;;7.32;3.75;;;;;;;14.86;79.43;99137.06;5071239;28;20048;-32
2022/09/29 03:01:54;;;;;;;8.65;4.00;;;;;;;14.82;80.53;99132.53;5071021;28;20031;-30
2022/09/29 03:04:22;;;;;;;8.25;3.67;;;;;;;15.15;78.92;99151.81;5089524;28;20040;-28
2022/09/29 03:06:47;;;;;;;6.97;3.60;;;;;;;15.24;78.10;99151.00;5089181;28;20055;-29
2022/09/29 03:09:13;;;;;;;8.02;3.78;;;;;;;15.36;77.07;99137.25;5089114;28;20032;-28
2022/09/29 03:11:38;;;;;;;7.28;3.70;;;;;;;15.22;78.92;99153.16;5070777;28;20088;-32
2022/09/29 03:14:05;;;;;;;8.30;4.03;;;;;;;15.02;79.62;99137.88;5088702;28;20030;-28
2022/09/29 03:16:31;;;;;;;8.38;4.43;;;;;;;15.32;77.70;99130.00;5089015;28;20043;-30
2022/09/29 03:18:57;;;;;;;6.78;3.88;;;;;;;15.31;78.85;99139.16;5070608;28;20028;-29
2022/09/29 03:21:23;;;;;;;9.10;4.32;;;;;;;15.43;78.26;99150.41;5089105;28;20031;-30
2022/09/29 03:23:48;;;;;;;9.50;4.30;;;;;;;15.65;75.55;99128.56;5088382;28;20028;-29
2022/09/29 03:26:13;;;;;;;7.63;4.22;;;;;;;16.02;73.92;99133.53;5088685;28;20024;-29
2022/09/29 03:28:39;;;;;;;6.97;3.40;;;;;;;15.67;75.19;99129.91;5088270;28;20016;-28
2022/09/29 03:31:08;;;;;;;7.03;3.90;;;;;;;15.64;75.72;99149.25;5088317;28;20063;-28
2022/09/29 03:33:34;;;;;;;6.68;3.55;;;;;;;15.63;76.07;99153.03;5070437;28;20036;-29
2022/09/29 03:36:00;;;;;;;7.55;3.38;;;;;;;15.51;76.03;99165.97;5088653;28;20027;-28
2022/09/29 03:38:25;;;;;;;7.35;3.42;;;;;;;15.40;75.62;99146.38;5088629;28;20496;-28
2022/09/29 03:40:51;;;;;;;9.18;3.40;;;;;;;15.41;75.49;99171.38;5088730;28;20067;-29
2022/09/29 03:43:16;;;;;;;7.50;3.47;;;;;;;15.40;75.96;99175.13;5070440;28;20404;-29
2022/09/29 03:45:49;;;;;;;7.40;3.58;;;;;;;15.44;76.25;99181.56;5088369;28;20597;-28
2022/09/29 03:48:16;;;;;;;6.50;3.17;;;;;;;15.30;77.63;99180.53;5088407;28;20491;-28
2022/09/29 03:50:42;;;;;;;5.32;2.88;;;;;;;15.24;77.21;99156.38;5088414;28;20068;-31
2022/09/29 03:53:07;;;;;;;6.35;3.10;;;;;;;15.32;77.27;99146.13;5088394;28;20028;-28
2022/09/29 03:55:33;;;;;;;7.47;3.40;;;;;;;15.56;76.44;99157.09;5088152;28;20107;-29
2022/09/29 03:57:58;;;;;;;7.53;3.25;;;;;;;15.44;76.17;99134.00;5088036;28;20030;-31
2022/09/29 04:00:24;;;;;;;9.07;3.60;;;;;;;15.23;78.12;99162.81;5088072;28;20020;-28
2022/09/29 04:02:49;;;;;;;5.85;3.20;;;;;;;15.11;79.52;99158.81;5069933;28;20040;-28
2022/09/29 04:05:16;;;;;;;6.15;3.13;;;;;;;15.16;79.38;99158.78;5088121;28;20024;-28
2022/09/29 04:07:41;;;;;;;8.48;3.40;;;;;;;15.58;77.60;99147.66;5088060;28;20972;-28
2022/09/29 04:10:07;;;;;;;5.80;3.60;;;;;;;15.73;76.35;99151.41;5088130;28;20049;-31
2022/09/29 04:12:32;;;;;;;6.32;3.90;;;;;;;15.44;77.68;99152.81;5069664;28;20032;-29
2022/09/29 04:14:58;;;;;;;7.43;3.70;;;;;;;15.62;76.81;99145.25;5087903;28;20032;-28
2022/09/29 04:17:23;;;;;;;5.95;3.75;;;;;;;15.67;76.29;99129.91;5087836;28;20490;-29
2022/09/29 04:19:50;;;;;;;7.32;4.53;;;;;;;15.63;76.59;99147.66;5087788;28;20475;-28
2022/09/29 04:22:17;;;;;;;7.07;4.07;;;;;;;15.58;76.60;99144.97;5088229;28;20039;-27
2022/09/29 04:24:44;;;;;;;6.45;4.10;;;;;;;15.74;76.49;99161.09;5087773;28;20427;-28
2022/09/29 04:27:10;;;;;;;10.75;4.80;;;;;;;15.61;75.92;99159.75;5087773;28;20038;-28
2022/09/29 04:29:35;;;;;;;7.30;4.18;;;;;;;15.39;77.25;99170.84;5069317;28;20023;-29
2022/09/29 04:32:00;;;;;;;7.53;4.25;;;;;;;15.19;78.51;99172.47;5069714;28;20030;-28
2022/09/29 04:34:26;;;;;;;6.22;3.85;;;;;;;15.15;78.47;99159.88;5087821;28;20028;-27
2022/09/29 04:36:52;;;;;;;8.45;4.13;;;;;;;15.24;78.05;99172.50;5069506;28;20028;-30
2022/09/29 04:39:17;;;;;;;8.30;4.50;;;;;;;15.42;78.13;99199.84;5087530;28;20024;-28
2022/09/29 04:41:43;;;;;;;8.57;4.43;;;;;;;15.31;77.17;99172.19;5087227;28;20039;-31
2022/09/29 04:44:08;;;;;;;7.88;4.32;;;;;;;15.32;77.38;99191.81;5087297;28;20028;-28
2022/09/29 04:46:33;;;;;;;8.15;4.10;;;;;;;15.23;78.02;99203.09;5069248;28;20028;-29
2022/09/29 04:48:59;;;;;;;8.82;3.90;;;;;;;15.09;78.40;99191.28;5087663;28;20027;-32
2022/09/29 04:51:24;;;;;;;7.32;3.95;;;;;;;15.54;76.19;99204.94;5087240;28;20024;-28
2022/09/29 04:53:52;;;;;;;7.00;3.80;;;;;;;15.40;76.45;99191.25;5087153;28;20112;-28
2022/09/29 04:56:17;;;;;;;6.25;4.00;;;;;;;15.39;76.62;99206.56;5087393;28;20043;-26
2022/09/29 04:58:43;;;;;;;7.38;3.92;;;;;;;15.27;76.54;99201.47;5087345;28;20032;-28
2022/09/29 05:01:12;;;;;;;6.15;3.45;;;;;;;15.24;76.54;99209.25;5087312;28;20040;-28
2022/09/29 05:03:38;;;;;;;12.48;4.22;;;;;;;15.27;75.42;99176.50;5087470;28;20028;-28
2022/09/29 05:06:04;;;;;;;8.35;4.13;;;;;;;15.21;76.51;99199.88;5087258;28;20051;-27
2022/09/29 05:08:30;;;;;;;7.88;4.07;;;;;;;15.39;75.60;99201.19;5087225;28;20077;-28
2022/09/29 05:10:56;;;;;;;7.47;4.07;;;;;;;15.55;75.16;99193.91;5087273;28;20032;-28
2022/09/29 05:13:21;;;;;;;8.38;4.20;;;;;;;15.63;75.08;99203.28;5086864;28;20028;-27
2022/09/29 05:15:47;;;;;;;9.70;4.50;;;;;;;15.58;75.95;99217.53;5087101;28;20093;-28
2022/09/29 05:18:12;;;;;;;8.77;4.63;;;;;;;15.63;76.04;99217.53;5068901;28;20089;-31
2022/09/29 05:20:37;;;;;;;8.98;4.50;;;;;;;15.53;76.37;99209.50;5087271;28;20568;-27
2022/09/29 05:23:08;;;;;;;8.55;4.90;;;;;;;15.72;76.41;99233.09;5087063;28;20031;-27
2022/09/29 05:25:35;;;;;;;7.18;4.30;;;;;;;15.68;77.80;99236.31;5087109;28;20024;-28
2022/09/29 05:28:00;;;;;;;8.75;4.80;;;;;;;15.47;78.97;99229.41;5086478;28;20142;-30
2022/09/29 05:30:26;;;;;;;7.85;4.57;;;;;;;15.78;78.12;99245.47;5087190;28;20028;-29
2022/09/29 05:32:51;;;;;;;8.02;4.80;;;;;;;15.79;78.29;99230.94;5087197;28;20081;-29
2022/09/29 05:35:17;;;;;;;9.25;5.03;;;;;;;16.08;76.42;99239.19;5086882;28;20051;-28
2022/09/29 05:37:42;;;;;;;7.20;5.10;;;;;;;15.97;76.43;99243.78;5086961;28;20047;-29
2022/09/29 05:40:09;;;;;;;9.52;5.68;;;;;;;15.96;76.58;99230.66;5086555;28;20024;-27
2022/09/29 05:42:34;;;;;;;9.90;5.55;;;;;;;16.10;75.71;99228.97;5086741;28;20174;-30
2022/09/29 05:45:00;;;;;;;10.40;4.88;;;;;;;16.16;75.17;99229.72;5087024;28;20127;-27
2022/09/29 05:47:25;;;;;;;9.45;5.93;;;;;;;16.10;75.18;99220.06;5087020;28;20023;-28
2022/09/29 05:49:51;;;;;;;8.00;5.32;;;;;;;16.25;75.64;99228.88;5086827;28;20028;-27
2022/09/29 05:52:17;;;;;;;9.23;5.00;;;;;;;16.44;74.14;99226.34;5087271;28;20032;-28
2022/09/29 05:54:42;;;;;;;9.57;5.28;;;;;;;16.61;73.99;99225.19;5090736;28;20043;-29
2022/09/29 05:57:07;;;;;;;7.85;4.82;;;;;;;16.81;73.20;99241.22;5090369;28;20024;-27
2022/09/29 05:59:33;;;;;;;11.05;6.30;;;;;;;16.79;73.99;99242.56;5090979;28;20058;-27
2022/09/29 06:01:58;;;;;;;8.32;5.38;;;;;;;16.75;73.52;99225.38;5090401;28;20130;-29
2022/09/29 06:04:24;;;;;;;8.05;4.70;;;;;;;17.07;72.93;99235.66;5090709;28;20385;-27
2022/09/29 06:06:49;;;;;;;8.00;4.65;;;;;;;17.17;72.22;99238.25;5090188;28;20419;-28
2022/09/29 06:09:15;;;;;;;8.98;4.90;;;;;;;17.26;71.80;99233.06;5090349;28;20028;-31
2022/09/29 06:11:40;;;;;;;7.28;5.07;;;;;;;16.97;72.37;99243.81;5071985;28;20070;-28
2022/09/29 06:14:06;;;;;;;10.00;4.65;;;;;;;17.26;71.25;99228.50;5090235;28;20085;-32
2022/09/29 06:16:33;;;;;;;11.02;4.88;;;;;;;17.41;70.94;99242.91;5090350;28;20025;-28
2022/09/29 06:19:00;;;;;;;10.00;5.28;;;;;;;17.25;71.09;99234.97;5090245;28;20032;-29
2022/09/29 06:21:27;;;;;;;10.07;5.27;;;;;;;17.44;71.06;99247.72;5090343;28;20036;-28
2022/09/29 06:23:54;;;;;;;10.30;4.88;;;;;;;17.60;71.59;99240.31;5090006;28;20028;-26
2022/09/29 06:26:20;;;;;;;9.73;4.97;;;;;;;17.79;70.59;99226.88;5089873;28;20040;-30
2022/09/29 06:28:46;;;;;;;9.93;5.07;;;;;;;18.06;70.46;99237.94;5090411;28;20107;-27
2022/09/29 06:31:14;;;;;;;8.05;4.70;;;;;;;18.32;68.35;99234.88;5090190;28;20107;-28
2022/09/29 06:33:40;;;;;;;8.15;4.63;;;;;;;18.29;68.21;99230.09;5090075;28;20032;-29
2022/09/29 06:39:00;;;;;;;10.40;4.50;;;;;;;18.55;69.09;99237.81;5090303;28;20066;-28
2022/09/29 06:41:27;;;;;;;38.03;6.53;;;;;;;18.76;69.77;99233.72;5090222;28;20032;-29
2022/09/29 06:43:53;;;;;;;7.63;4.63;;;;;;;18.64;68.36;99227.97;5071845;28;20024;-28
2022/09/29 06:46:18;;;;;;;12.27;4.78;;;;;;;19.04;66.32;99237.38;5089800;28;20164;-29
2022/09/29 06:48:44;;;;;;;8.45;4.20;;;;;;;19.07;66.99;99238.69;5089842;28;20027;-28
2022/09/29 06:51:10;;;;;;;8.32;4.95;;;;;;;19.44;65.89;99247.78;5071084;28;20031;-30
2022/09/29 06:53:36;;;;;;;8.65;4.47;;;;;;;19.53;65.90;99240.59;5089405;28;20043;-28
2022/09/29 06:56:02;;;;;;;7.03;4.25;;;;;;;19.70;65.78;99244.63;5071039;28;20416;-30
2022/09/29 06:58:28;;;;;;;6.68;4.72;;;;;;;20.00;64.74;99246.78;5089694;28;20024;-29
2022/09/29 07:00:54;;;;;;;8.93;4.78;;;;;;;20.07;63.60;99241.75;5089655;28;20028;-27
2022/09/29 07:03:19;;;;;;;12.30;4.90;;;;;;;20.01;62.47;99226.72;5077724;28;20029;-27
2022/09/29 07:05:45;;;;;;;9.35;5.28;;;;;;;20.09;61.32;99236.03;5068447;28;20041;-28
2022/09/29 07:08:10;;;;;;;9.65;4.68;;;;;;;20.31;60.31;99235.31;5067694;28;20561;-29
2022/09/29 07:10:36;;;;;;;8.55;4.25;;;;;;;20.30;60.79;99220.16;5067810;28;20032;-29
2022/09/29 07:13:01;;;;;;;10.52;4.53;;;;;;;20.33;61.96;99230.41;5050791;28;20029;-29
2022/09/29 07:15:32;;;;;;;8.43;4.60;;;;;;;20.59;61.32;99232.56;5068893;28;20032;-29
2022/09/29 07:17:59;;;;;;;7.78;4.80;;;;;;;20.85;60.80;99235.47;5068587;28;20855;-27
2022/09/29 07:20:26;;;;;;;8.90;4.70;;;;;;;20.86;60.29;99228.94;5068623;28;20024;-27
2022/09/29 07:22:52;;;;;;;8.27;4.88;;;;;;;20.77;60.31;99223.47;5068905;28;20134;-30
2022/09/29 07:25:18;;;;;;;9.82;4.78;;;;;;;21.11;58.81;99232.97;5069084;28;20544;-27
2022/09/29 07:27:44;;;;;;;10.77;4.75;;;;;;;20.75;59.03;99216.75;5068705;28;20077;-27
2022/09/29 07:30:10;;;;;;;7.63;4.03;;;;;;;21.05;58.27;99226.06;5050479;28;20039;-29
2022/09/29 07:32:35;;;;;;;7.95;4.60;;;;;;;21.16;58.86;99235.53;5068357;28;20036;-29
2022/09/29 07:35:01;;;;;;;7.35;4.10;;;;;;;21.28;59.13;99227.63;5068240;28;20025;-30
2022/09/29 07:37:27;;;;;;;4.90;3.38;;;;;;;21.56;58.44;99229.41;5068481;28;20063;-29
2022/09/29 07:39:53;;;;;;;8.82;3.88;;;;;;;21.83;56.56;99228.38;5068212;28;20043;-28
2022/09/29 07:42:20;;;;;;;6.55;3.45;;;;;;;21.90;56.95;99255.84;5068459;28;20089;-33
2022/09/29 07:44:46;;;;;;;8.63;3.45;;;;;;;22.31;54.82;99252.00;5068246;28;20546;-31
2022/09/29 07:47:12;;;;;;;7.07;3.58;;;;;;;22.18;56.48;99263.78;5068184;28;20040;-28
2022/09/29 07:49:38;;;;;;;5.75;3.78;;;;;;;22.12;55.11;99254.97;5067875;28;20052;-28
2022/09/29 07:52:04;;;;;;;6.72;3.40;;;;;;;22.30;54.68;99239.56;5068035;28;20043;-29
2022/09/29 07:54:30;;;;;;;5.35;3.40;;;;;;;22.49;55.29;99243.91;5067949;28;20032;-28
2022/09/29 07:56:56;;;;;;;7.65;3.40;;;;;;;22.70;55.80;99242.16;5050002;28;20027;-29
2022/09/29 07:59:21;;;;;;;7.07;3.35;;;;;;;22.92;53.12;99243.88;5067834;28;20032;-31
2022/09/29 08:01:47;;;;;;;5.10;3.45;;;;;;;22.84;54.02;99241.97;5067592;28;20037;-29
2022/09/29 08:04:12;;;;;;;6.55;3.55;;;;;;;23.17;52.92;99255.91;5068351;28;20043;-28
2022/09/29 08:06:39;;;;;;;9.95;3.55;;;;;;;23.13;52.05;99252.25;5067591;28;20060;-28
2022/09/29 08:09:05;;;;;;;9.52;3.80;;;;;;;23.36;53.57;99244.66;5067773;28;20031;-27
2022/09/29 08:11:32;;;;;;;6.15;3.50;;;;;;;23.62;52.36;99260.91;5067662;28;20032;-29
2022/09/29 08:13:59;;;;;;;6.93;3.30;;;;;;;23.92;51.18;99260.19;5067244;28;20111;-29
2022/09/29 08:16:24;;;;;;;6.35;3.17;;;;;;;24.06;50.27;99264.25;5067198;28;20082;-28
2022/09/29 08:18:50;;;;;;;8.23;3.50;;;;;;;24.17;49.69;99263.88;5067479;28;20036;-29
2022/09/29 08:21:15;;;;;;;6.25;3.40;;;;;;;24.12;50.46;99255.91;5066065;28;20432;-31
2022/09/29 08:23:42;;;;;;;8.00;3.00;;;;;;;24.24;49.59;99253.28;5067547;28;20040;-28
2022/09/29 08:26:16;;;;;;;7.72;3.28;;;;;;;24.33;47.40;99239.59;5067475;28;20081;-28
2022/09/29 08:28:42;;;;;;;7.13;3.15;;;;;;;24.44;48.17;99244.34;5049174;28;20132;-27
2022/09/29 08:31:13;;;;;;;5.53;3.35;;;;;;;24.58;48.99;99241.38;5067222;28;20039;-28
2022/09/29 08:33:39;;;;;;;7.63;3.40;;;;;;;24.72;49.26;99235.63;5049700;28;20051;-30
2022/09/29 08:36:13;;;;;;;6.22;3.00;;;;;;;25.00;47.69;99251.44;5067032;28;20480;-31
2022/09/29 08:38:41;;;;;;;6.47;2.85;;;;;;;24.92;48.05;99239.47;5067373;28;20517;-31
2022/09/29 08:41:32;;;;;;;6.40;3.17;;;;;;;25.32;47.35;99257.28;5067353;28;20063;-28
2022/09/29 08:44:09;;;;;;;5.63;2.60;;;;;;;25.21;47.41;99230.41;5067044;28;20028;-28
2022/09/29 08:46:42;;;;;;;4.20;2.70;;;;;;;25.31;47.08;99250.22;5067364;28;20526;-31
2022/09/29 08:49:20;;;;;;;6.80;2.63;;;;;;;25.57;47.87;99256.19;5067278;28;20025;-28
2022/09/29 08:51:50;;;;;;;8.68;3.42;;;;;;;25.79;44.46;99233.09;5067018;28;20028;-28
2022/09/29 08:54:29;;;;;;;5.22;2.38;;;;;;;25.88;44.52;99257.56;5066696;28;20428;-28
2022/09/29 08:56:55;;;;;;;7.20;2.65;;;;;;;25.97;44.95;99255.56;5067168;28;20485;-29
2022/09/29 08:59:24;;;;;;;4.65;2.40;;;;;;;26.17;43.12;99247.56;5067030;28;20047;-27
2022/09/29 09:02:01;;;;;;;5.65;2.63;;;;;;;26.29;42.91;99266.69;5066769;28;20032;-28
2022/09/29 09:04:58;;;;;;;3.92;2.45;;;;;;;26.40;43.05;99276.03;5066966;28;20033;-29
2022/09/29 09:08:03;;;;;;;5.47;2.78;;;;;;;26.62;43.18;99273.94;5063474;28;20056;-27
2022/09/29 09:10:46;;;;;;;5.20;2.80;;;;;;;26.48;43.72;99278.97;5015743;28;20044;-31
2022/09/29 09:13:30;;;;;;;5.45;2.42;;;;;;;26.37;44.17;99276.69;5067052;28;20024;-28
2022/09/29 09:16:15;;;;;;;6.45;3.13;;;;;;;26.63;43.85;99275.56;5048598;28;20037;-28
2022/09/29 09:18:41;;;;;;;5.28;2.47;;;;;;;26.42;43.91;99276.47;5048634;28;20028;-28
2022/09/29 09:21:07;;;;;;;8.05;2.97;;;;;;;26.60;43.59;99270.75;5066674;28;20392;-28
2022/09/29 09:23:53;;;;;;;4.70;2.33;;;;;;;26.60;43.08;99270.75;5066762;28;20035;-28
2022/09/29 09:26:55;;;;;;;7.93;2.80;;;;;;;26.52;42.39;99263.47;5066980;28;20064;-28
2022/09/29 09:29:37;;;;;;;6.65;2.55;;;;;;;26.59;44.21;99253.56;4971995;28;20835;-28
2022/09/29 09:32:11;;;;;;;6.05;2.55;;;;;;;26.45;44.68;99231.25;5046511;28;20036;-28
2022/09/29 09:34:57;;;;;;;5.45;2.30;;;;;;;26.99;43.13;99260.97;5052658;28;20028;-27
2022/09/29 09:37:32;;;;;;;5.50;2.72;;;;;;;27.14;40.74;99251.19;5070326;28;20496;-28
2022/09/29 09:40:13;;;;;;;5.18;2.70;;;;;;;27.16;41.31;99254.38;5070107;28;20404;-33
2022/09/29 09:42:43;;;;;;;4.53;2.03;;;;;;;27.16;40.68;99242.63;5070475;28;20025;-28
2022/09/29 09:45:18;;;;;;;5.72;2.33;;;;;;;27.32;41.27;99232.53;5070345;28;20089;-27
2022/09/29 09:47:55;;;;;;;3.53;1.92;;;;;;;27.85;41.82;99235.81;5070244;28;20020;-28
2022/09/29 09:50:23;;;;;;;;;;;;;;;28.18;39.22;99236.59;5053035;28;20564;-30
2022/09/29 09:53:04;;;;;;;4.57;1.90;;;;;;;28.41;37.81;99234.75;5051936;28;20384;-28
2022/09/29 09:55:33;;;;;;;4.72;2.10;;;;;;;28.30;38.18;99233.72;5070114;28;20070;-29
2022/09/29 09:58:31;;;;;;;4.38;1.85;;;;;;;28.38;38.60;99226.44;5069677;28;20035;-30
2022/09/29 10:01:00;;;;;;;8.55;2.33;;;;;;;28.05;38.62;99206.56;5069578;28;20038;-31
2022/09/29 10:03:28;;;;;;;5.65;2.20;;;;;;;28.18;38.60;99214.66;5070000;28;20056;-29
2022/09/29 10:05:53;;;;;;;4.40;2.03;;;;;;;27.91;38.75;99205.41;5069604;28;20048;-28
2022/09/29 10:08:24;;;;;;;5.50;2.38;;;;;;;27.64;39.69;99197.75;5070079;28;20099;-29
2022/09/29 10:10:51;;;;;;;4.15;2.13;;;;;;;27.52;40.31;99206.03;5051849;28;20042;-28
2022/09/29 10:13:16;;;;;;;6.95;2.83;;;;;;;27.73;39.68;99200.28;5069707;28;20056;-31
2022/09/29 10:15:47;;;;;;;3.03;1.95;;;;;;;28.11;39.88;99219.97;5069971;28;20185;-31
2022/09/29 10:18:25;;;;;;;4.25;1.90;;;;;;;28.34;38.70;99215.41;5069950;28;20035;-28
2022/09/29 10:20:51;;;;;;;7.63;2.30;;;;;;;28.44;38.91;99214.03;5051688;28;20511;-28
2022/09/29 10:23:19;;;;;;;6.45;2.38;;;;;;;27.89;38.75;99203.06;5069295;28;20032;-28
2022/09/29 10:25:53;;;;;;;;;;;;;;;28.04;39.45;99210.44;5068482;28;20033;-28
2022/09/29 10:28:20;;;;;;;7.25;2.38;;;;;;;27.80;40.10;99211.41;5069311;28;19958;-28
2022/09/29 10:30:45;;;;;;;4.00;1.83;;;;;;;28.07;38.30;99208.13;5069639;28;20110;-31
2022/09/29 10:33:16;;;;;;;3.88;2.33;;;;;;;28.04;38.98;99209.66;5069370;28;20751;-31
2022/09/29 10:35:44;;;;;;;4.20;2.03;;;;;;;27.97;38.30;99202.06;5069489;28;20032;-28
2022/09/29 10:38:25;;;;;;;5.03;2.15;;;;;;;28.28;39.74;99211.34;5068313;28;20032;-29
2022/09/29 10:41:01;;;;;;;4.65;2.00;;;;;;;28.23;38.81;99190.47;5051232;28;20093;-30
2022/09/29 10:43:41;;;;;;;4.70;2.03;;;;;;;28.27;38.65;99201.53;5069057;28;20145;-31
2022/09/29 10:46:36;;;;;;;4.97;2.03;;;;;;;28.30;38.51;99200.81;5069004;28;20115;-30
2022/09/29 10:49:14;;;;;;;6.07;2.10;;;;;;;28.19;39.71;99184.13;5051252;28;20017;-30
2022/09/29 10:51:47;;;;;;;5.15;2.30;;;;;;;28.29;39.13;99182.78;5069239;28;20466;-28
2022/09/29 10:54:15;;;;;;;2.83;2.00;;;;;;;28.18;39.78;99192.72;5069092;28;20032;-32
2022/09/29 10:56:47;;;;;;;5.47;2.25;;;;;;;28.09;38.70;99200.34;5069137;28;20035;-28
2022/09/29 10:59:15;;;;;;;4.03;2.10;;;;;;;28.38;38.67;99193.53;5069284;28;20029;-28
2022/09/29 11:01:49;;;;;;;;;;;;;;;29.03;38.32;99187.38;5069166;28;20033;-30
2022/09/29 11:04:35;;;;;;;4.60;2.00;;;;;;;29.30;35.75;99187.47;5051305;28;20326;-31
2022/09/29 11:07:09;;;;;;;5.72;2.55;;;;;;;28.83;36.98;99195.66;5068572;28;20139;-31
2022/09/29 11:09:42;;;;;;;4.78;2.17;;;;;;;29.30;36.80;99193.78;5068633;28;20025;-28
2022/09/29 11:12:38;;;;;;;7.32;2.85;;;;;;;29.48;37.04;99196.81;5068615;28;20032;-30
2022/09/29 11:15:24;;;;;;;5.32;2.22;;;;;;;29.59;35.87;99194.25;5050363;28;20458;-28
2022/09/29 11:17:51;;;;;;;6.03;2.20;;;;;;;29.19;37.16;99179.84;5068318;28;20036;-28
2022/09/29 11:20:17;;;;;;;3.58;2.13;;;;;;;29.16;35.70;99172.38;5068355;28;20032;-28
2022/09/29 11:22:55;;;;;;;5.28;2.00;;;;;;;29.35;35.59;99184.44;5068551;28;20089;-28
2022/09/29 11:25:35;;;;;;;3.72;1.95;;;;;;;29.59;36.86;99164.81;5068409;28;20032;-28
2022/09/29 11:28:39;;;;;;;4.18;2.20;;;;;;;30.03;34.85;99186.28;5050201;28;20087;-28
2022/09/29 11:31:11;;;;;;;4.50;2.20;;;;;;;30.43;34.43;99184.91;5067664;28;20123;-29
2022/09/29 11:34:01;;;;;;;4.22;1.95;;;;;;;30.89;35.49;99172.84;5067984;28;20024;-30
2022/09/29 11:36:47;;;;;;;5.03;2.20;;;;;;;30.79;34.54;99174.31;5068078;28;20420;-29
2022/09/29 11:39:55;;;;;;;5.47;2.00;;;;;;;30.81;34.48;99162.91;5068004;28;20025;-29
2022/09/29 11:42:33;;;;;;;3.92;2.10;;;;;;;30.80;34.46;99167.63;4985811;28;20270;-31
2022/09/29 11:44:59;;;;;;;6.53;2.22;;;;;;;30.90;34.27;99159.91;5039256;28;20041;-34
2022/09/29 11:47:53;;;;;;;5.53;2.05;;;;;;;30.68;33.50;99156.88;5049639;28;20050;-28
2022/09/29 11:50:27;;;;;;;3.75;1.83;;;;;;;30.80;33.12;99164.09;5066929;28;20030;-30
2022/09/29 11:52:52;;;;;;;7.35;2.35;;;;;;;31.62;31.68;99164.84;5067604;28;20028;-32